Time;durP1;ratioP1;P1;durP2;ratioP2;P2;SDS_P1;SDS_P2;PMS_P1;PMS_P2;Temp;Humidity;BMP_temperature;BMP_pressure;BME280_temperature;BME280_humidity;BME280_pressure;Samples;Min_cycle;Max_cycle;Signal;HPM_P1;HPM_P2
2022/11/28 00:01:42;;;;;;;0.10;0.10;;;2.90;99.90;1.60;97167.00;;;;5051805;28;20201;-76
2022/11/28 00:04:11;;;;;;;0.10;0.10;;;2.90;99.90;1.50;96988.00;;;;5043995;28;20229;-76
2022/11/28 00:06:44;;;;;;;0.10;0.10;;;2.90;99.90;1.50;97151.00;;;;5033193;28;20273;-74
2022/11/28 00:09:14;;;;;;;0.10;0.10;;;2.80;99.90;1.50;97150.00;;;;5032918;28;20711;-75
2022/11/28 00:11:44;;;;;;;0.10;0.10;;;2.80;99.90;1.50;97178.00;;;;5032657;28;20635;-76
2022/11/28 00:14:14;;;;;;;0.10;0.10;;;2.80;99.90;1.40;96973.00;;;;5033191;28;20211;-77
2022/11/28 00:16:45;;;;;;;0.10;0.10;;;2.80;99.90;1.40;96965.00;;;;5032971;28;20191;-74
2022/11/28 00:19:14;;;;;;;0.20;0.20;;;2.80;99.90;1.50;96974.00;;;;5035815;28;20191;-74
2022/11/28 00:21:42;;;;;;;0.10;0.10;;;2.80;99.90;1.50;96980.00;;;;5018927;28;20204;-74
2022/11/28 00:24:10;;;;;;;0.10;0.10;;;2.80;99.90;1.50;96972.00;;;;5018071;28;20707;-74
2022/11/28 00:26:41;;;;;;;0.10;0.10;;;2.80;99.90;1.40;96971.00;;;;5032841;28;20198;-74
2022/11/28 00:29:10;;;;;;;0.10;0.10;;;2.80;99.90;1.50;96962.00;;;;5032502;28;20207;-74
2022/11/28 00:31:42;;;;;;;0.10;0.10;;;2.80;99.90;1.40;96947.00;;;;5032361;28;20581;-74
2022/11/28 00:34:15;;;;;;;0.10;0.10;;;2.80;99.90;1.50;96899.00;;;;5033200;28;20714;-74
2022/11/28 00:36:45;;;;;;;0.10;0.10;;;2.80;99.90;1.50;96917.00;;;;5033128;28;20245;-74
2022/11/28 00:39:14;;;;;;;0.10;0.10;;;2.90;99.90;1.40;96945.00;;;;5032916;28;20198;-75
2022/11/28 00:41:43;;;;;;;0.20;0.20;;;2.80;99.90;1.50;96957.00;;;;5033018;28;20293;-75
2022/11/28 00:44:12;;;;;;;0.10;0.10;;;2.90;99.90;1.60;97000.00;;;;5033297;28;20215;-74
2022/11/28 00:46:41;;;;;;;0.10;0.10;;;2.90;99.90;1.50;96952.00;;;;5040443;28;20187;-76
2022/11/28 00:49:09;;;;;;;0.10;0.10;;;2.90;99.90;1.60;96945.00;;;;5042414;28;20248;-75
2022/11/28 00:51:39;;;;;;;0.10;0.10;;;2.90;99.90;1.60;96963.00;;;;5033451;28;20729;-74
2022/11/28 00:54:07;;;;;;;0.10;0.10;;;3.00;99.90;1.60;96962.00;;;;5016123;28;20273;-75
2022/11/28 00:56:39;;;;;;;0.10;0.10;;;3.00;99.90;1.70;96959.00;;;;5032733;28;20210;-75
2022/11/28 00:59:07;;;;;;;0.10;0.10;;;3.00;99.90;1.70;96965.00;;;;5032702;28;20689;-75
2022/11/28 01:01:41;;;;;;;0.10;0.10;;;3.00;99.90;1.70;96971.00;;;;5032479;28;20195;-73
2022/11/28 01:04:14;;;;;;;0.10;0.10;;;3.00;99.90;1.70;96951.00;;;;5033010;28;20305;-74
2022/11/28 01:06:47;;;;;;;0.10;0.10;;;3.10;99.90;1.70;96980.00;;;;5033296;28;20233;-74
2022/11/28 01:09:19;;;;;;;0.10;0.10;;;3.10;99.90;1.70;96885.00;;;;5032481;28;20190;-75
2022/11/28 01:11:49;;;;;;;0.10;0.10;;;3.00;99.90;1.70;96953.00;;;;5032115;28;20281;-74
2022/11/28 01:14:19;;;;;;;0.10;0.10;;;3.10;99.90;1.80;96951.00;;;;5032249;28;20226;-74
2022/11/28 01:16:48;;;;;;;0.10;0.10;;;3.10;99.90;1.80;96959.00;;;;5032222;28;20210;-74
2022/11/28 01:19:16;;;;;;;0.10;0.10;;;3.10;99.90;1.80;96944.00;;;;5032320;28;20202;-74
2022/11/28 01:21:46;;;;;;;0.10;0.10;;;3.20;99.90;1.80;96977.00;;;;5028505;28;20614;-72
2022/11/28 01:24:15;;;;;;;0.10;0.10;;;3.20;99.90;1.80;96956.00;;;;5039513;28;20268;-72
2022/11/28 01:26:44;;;;;;;0.10;0.10;;;3.20;99.90;1.80;96948.00;;;;5036332;28;20577;-73
2022/11/28 01:29:12;;;;;;;0.10;0.10;;;3.20;99.90;1.90;96946.00;;;;5032095;28;20202;-73
2022/11/28 01:31:41;;;;;;;0.10;0.10;;;3.20;99.90;1.90;96945.00;;;;5032577;28;20203;-72
2022/11/28 01:34:09;;;;;;;0.10;0.10;;;3.20;99.90;1.90;96910.00;;;;5032578;28;20230;-72
2022/11/28 01:36:37;;;;;;;0.10;0.10;;;3.30;99.90;1.90;96937.00;;;;5032333;28;20194;-72
2022/11/28 01:39:07;;;;;;;0.10;0.10;;;3.20;99.90;1.90;96939.00;;;;5032060;28;20187;-72
2022/11/28 01:41:35;;;;;;;0.10;0.10;;;3.20;99.90;1.90;96925.00;;;;5031764;28;20241;-72
2022/11/28 01:44:08;;;;;;;0.10;0.10;;;3.30;99.90;1.90;96922.00;;;;5033335;28;20246;-72
2022/11/28 01:46:37;;;;;;;0.10;0.10;;;3.30;99.90;1.90;96918.00;;;;5032675;28;20607;-76
2022/11/28 01:49:12;;;;;;;0.10;0.10;;;3.30;99.90;2.00;96902.00;;;;5031463;28;20272;-75
2022/11/28 01:51:45;;;;;;;0.10;0.10;;;3.30;99.90;2.00;96910.00;;;;5018497;28;20194;-75
2022/11/28 01:54:18;;;;;;;0.10;0.10;;;3.30;99.90;2.00;96881.00;;;;5031483;28;20283;-74
2022/11/28 01:56:54;;;;;;;0.10;0.10;;;3.30;99.90;2.00;96883.00;;;;5031718;28;20199;-74
2022/11/28 01:59:27;;;;;;;0.10;0.10;;;3.30;99.90;2.00;96876.00;;;;5031428;28;20252;-74
2022/11/28 02:01:55;;;;;;;0.10;0.10;;;3.30;99.90;2.00;96888.00;;;;5039061;28;20203;-75
2022/11/28 02:04:27;;;;;;;0.10;0.10;;;3.30;99.90;2.00;96885.00;;;;5040336;28;20221;-75
2022/11/28 02:06:56;;;;;;;0.10;0.10;;;3.30;99.90;2.00;96853.00;;;;5033145;28;20187;-75
2022/11/28 02:09:25;;;;;;;0.10;0.10;;;3.40;99.90;2.00;96845.00;;;;5031318;28;20195;-75
2022/11/28 02:12:27;;;;;;;0.10;0.10;;;3.40;99.90;2.00;96863.00;;;;5031315;28;20194;-74
2022/11/28 02:15:17;;;;;;;0.10;0.10;;;3.40;99.90;2.00;96851.00;;;;5032135;28;20218;-75
2022/11/28 02:18:09;;;;;;;0.10;0.10;;;3.40;99.90;2.00;96838.00;;;;5018083;28;20869;-75
2022/11/28 02:21:13;;;;;;;0.10;0.10;;;3.40;99.90;2.10;96851.00;;;;5019180;28;20199;-75
2022/11/28 02:24:16;;;;;;;0.10;0.10;;;3.40;99.90;2.00;96857.00;;;;5031636;28;20714;-75
2022/11/28 02:27:19;;;;;;;0.10;0.10;;;3.40;99.90;2.10;96831.00;;;;5031597;28;20229;-76
2022/11/28 02:30:18;;;;;;;0.10;0.10;;;3.40;99.90;2.10;96849.00;;;;5015539;28;20226;-75
2022/11/28 02:33:12;;;;;;;0.00;0.00;;;3.40;99.90;2.10;96753.00;;;;5020354;28;20191;-75
2022/11/28 02:35:59;;;;;;;0.10;0.10;;;3.40;99.90;2.10;96832.00;;;;5016195;28;20196;-77
2022/11/28 02:38:49;;;;;;;0.10;0.10;;;3.40;99.90;2.10;96849.00;;;;5027812;28;20199;-77
2022/11/28 02:41:30;;;;;;;0.10;0.10;;;3.50;99.90;2.20;96845.00;;;;5036121;28;20195;-77
2022/11/28 02:44:10;;;;;;;0.10;0.10;;;3.50;99.90;2.10;96844.00;;;;5036218;28;20260;-76
2022/11/28 02:46:49;;;;;;;0.10;0.10;;;3.50;99.90;2.20;96843.00;;;;5036276;28;20233;-76
2022/11/28 02:49:26;;;;;;;0.10;0.10;;;3.50;99.90;2.20;96855.00;;;;5035104;28;20226;-78
2022/11/28 02:52:00;;;;;;;0.00;0.00;;;3.50;99.90;2.20;96861.00;;;;5035500;28;20917;-76
2022/11/28 02:54:31;;;;;;;0.10;0.10;;;3.60;99.90;2.30;96857.00;;;;5040191;28;20223;-76
2022/11/28 02:56:59;;;;;;;0.00;0.00;;;3.60;99.90;2.30;96850.00;;;;5042995;28;20195;-76
2022/11/28 02:59:47;;;;;;;0.10;0.10;;;3.60;99.90;2.30;96846.00;;;;5034978;28;20199;-75
2022/11/28 03:02:21;;;;;;;0.10;0.10;;;3.60;99.90;2.30;96855.00;;;;5027316;28;20195;-75
2022/11/28 03:05:08;;;;;;;0.10;0.10;;;3.60;99.90;2.30;96863.00;;;;5047297;28;20304;-74
2022/11/28 03:08:05;;;;;;;0.10;0.10;;;3.60;99.90;2.30;96878.00;;;;5050298;28;20199;-74
2022/11/28 03:10:44;;;;;;;0.10;0.10;;;3.60;99.90;2.30;96870.00;;;;5034628;28;20611;-73
2022/11/28 03:13:30;;;;;;;0.10;0.10;;;3.70;99.90;2.40;96863.00;;;;5034832;28;20264;-74
2022/11/28 03:16:13;;;;;;;0.10;0.10;;;3.70;99.90;2.40;96856.00;;;;5034564;28;20190;-75
2022/11/28 03:18:55;;;;;;;0.10;0.10;;;3.70;99.90;2.40;96861.00;;;;5034358;28;20210;-75
2022/11/28 03:21:37;;;;;;;0.10;0.10;;;3.70;99.90;2.30;96850.00;;;;5034651;28;20218;-73
2022/11/28 03:24:15;;;;;;;0.10;0.10;;;3.60;99.90;2.30;96845.00;;;;5035054;28;20211;-74
2022/11/28 03:26:52;;;;;;;0.10;0.10;;;3.60;99.90;2.30;96855.00;;;;5034177;28;20204;-74
2022/11/28 03:29:26;;;;;;;0.10;0.10;;;3.60;99.90;2.30;96829.00;;;;5033746;28;20241;-74
2022/11/28 03:31:59;;;;;;;0.10;0.10;;;3.70;99.90;2.30;96832.00;;;;5033756;28;20265;-74
2022/11/28 03:34:35;;;;;;;0.10;0.10;;;3.70;99.90;2.40;96847.00;;;;5033668;28;20302;-74
2022/11/28 03:37:13;;;;;;;0.10;0.10;;;3.70;99.90;2.30;96839.00;;;;5034035;28;20866;-72
2022/11/28 03:39:55;;;;;;;0.10;0.10;;;3.70;99.90;2.40;96840.00;;;;5032126;28;20546;-72
2022/11/28 03:42:28;;;;;;;0.10;0.10;;;3.70;99.90;2.30;96821.00;;;;5033960;28;20206;-73
2022/11/28 03:45:03;;;;;;;0.10;0.10;;;3.70;99.90;2.30;96815.00;;;;5033823;28;20223;-73
2022/11/28 03:47:45;;;;;;;0.10;0.10;;;3.70;99.90;2.30;96804.00;;;;5033374;28;20209;-74
2022/11/28 03:50:21;;;;;;;0.10;0.10;;;3.70;99.90;2.30;96794.00;;;;5034364;28;20257;-75
2022/11/28 03:52:58;;;;;;;0.10;0.10;;;3.70;99.90;2.30;96798.00;;;;5033258;28;20191;-75
2022/11/28 03:55:33;;;;;;;0.10;0.10;;;3.70;99.90;2.30;96792.00;;;;5033326;28;20648;-75
2022/11/28 03:58:12;;;;;;;0.10;0.10;;;3.70;99.90;2.40;96797.00;;;;5033305;28;20273;-75
2022/11/28 04:00:53;;;;;;;0.10;0.10;;;3.70;99.90;2.30;96778.00;;;;5029548;28;20273;-76
2022/11/28 04:03:35;;;;;;;0.10;0.10;;;3.70;99.90;2.30;96762.00;;;;5022974;28;20698;-75
2022/11/28 04:06:16;;;;;;;0.10;0.10;;;3.70;99.90;2.30;96743.00;;;;5034233;28;20191;-74
2022/11/28 04:08:52;;;;;;;0.10;0.10;;;3.70;99.90;2.30;96720.00;;;;5034288;28;20194;-74
2022/11/28 04:11:30;;;;;;;0.10;0.10;;;3.70;99.90;2.30;96715.00;;;;5030841;28;20252;-74
2022/11/28 04:14:05;;;;;;;0.10;0.10;;;3.70;99.90;2.30;96684.00;;;;5033497;28;20923;-73
2022/11/28 04:16:41;;;;;;;0.10;0.10;;;3.70;99.90;2.30;96703.00;;;;5033357;28;20244;-73
2022/11/28 04:19:19;;;;;;;0.10;0.10;;;3.70;99.90;2.40;96715.00;;;;5033216;28;20529;-73
2022/11/28 04:21:59;;;;;;;0.10;0.10;;;3.80;99.90;2.40;96726.00;;;;5033497;28;20284;-73
2022/11/28 04:24:36;;;;;;;0.10;0.10;;;3.80;99.90;2.50;96700.00;;;;5033825;28;20218;-74
2022/11/28 04:27:09;;;;;;;0.10;0.10;;;3.90;99.90;2.40;96693.00;;;;5033426;28;20191;-74
2022/11/28 04:29:49;;;;;;;0.10;0.10;;;3.80;99.90;2.50;96705.00;;;;5032918;28;20206;-74
2022/11/28 04:32:21;;;;;;;0.10;0.10;;;3.90;99.90;2.60;96697.00;;;;5033124;28;20206;-74
2022/11/28 04:34:56;;;;;;;0.10;0.10;;;3.90;99.90;2.60;96708.00;;;;5032612;28;20222;-74
2022/11/28 04:37:28;;;;;;;0.10;0.10;;;4.00;99.90;2.60;96698.00;;;;5031972;28;20194;-75
2022/11/28 04:39:59;;;;;;;0.10;0.10;;;3.90;99.90;2.60;96671.00;;;;5033042;28;20195;-75
2022/11/28 04:42:36;;;;;;;0.10;0.10;;;4.00;99.90;2.70;96670.00;;;;5032720;28;20195;-73
2022/11/28 04:45:12;;;;;;;0.10;0.10;;;4.00;99.90;2.80;96659.00;;;;5022205;28;20273;-74
2022/11/28 04:47:41;;;;;;;0.10;0.10;;;4.10;99.90;2.80;96655.00;;;;5020819;28;20237;-73
2022/11/28 04:50:12;;;;;;;0.10;0.10;;;4.20;99.90;2.80;96657.00;;;;5032245;28;20191;-72
2022/11/28 04:52:49;;;;;;;0.10;0.10;;;4.10;99.90;2.80;96642.00;;;;5032904;28;20210;-73
2022/11/28 04:55:28;;;;;;;0.10;0.10;;;4.10;99.90;2.80;96655.00;;;;5032938;28;20223;-73
2022/11/28 04:58:08;;;;;;;0.10;0.10;;;4.20;99.90;2.80;96655.00;;;;5034128;28;20195;-73
2022/11/28 05:00:38;;;;;;;0.10;0.10;;;4.20;99.90;2.80;96660.00;;;;5034450;28;20203;-73
2022/11/28 05:03:09;;;;;;;0.03;0.03;;;4.20;99.90;2.90;96695.00;;;;5034361;28;20805;-73
2022/11/28 05:05:46;;;;;;;0.10;0.10;;;4.20;99.90;2.80;96647.00;;;;5032258;28;20256;-72
2022/11/28 05:08:14;;;;;;;0.10;0.10;;;4.20;99.90;2.90;96660.00;;;;5030276;28;20804;-72
2022/11/28 05:10:44;;;;;;;0.10;0.10;;;4.20;99.90;2.90;96667.00;;;;5025276;28;20265;-73
2022/11/28 05:13:13;;;;;;;0.10;0.10;;;4.20;99.90;2.90;96660.00;;;;5032432;28;20265;-73
2022/11/28 05:15:41;;;;;;;0.10;0.10;;;4.30;99.90;2.90;96646.00;;;;5032275;28;20268;-73
2022/11/28 05:18:09;;;;;;;0.10;0.10;;;4.20;99.90;2.90;96681.00;;;;5029686;28;20245;-74
2022/11/28 05:20:38;;;;;;;0.00;0.00;;;4.30;99.90;2.90;96677.00;;;;5031477;28;20195;-73
2022/11/28 05:23:06;;;;;;;0.08;0.08;;;4.20;99.90;2.90;96679.00;;;;5031325;28;20249;-73
2022/11/28 05:25:37;;;;;;;0.10;0.10;;;4.20;99.90;2.90;96684.00;;;;5030522;28;20677;-72
2022/11/28 05:28:06;;;;;;;0.10;0.10;;;4.20;99.90;2.80;96699.00;;;;5025520;28;20206;-73
2022/11/28 05:30:34;;;;;;;0.10;0.10;;;4.20;99.90;2.80;96710.00;;;;5031303;28;20195;-73
2022/11/28 05:33:02;;;;;;;0.10;0.10;;;4.10;99.90;2.70;96696.00;;;;5031834;28;20195;-72
2022/11/28 05:35:31;;;;;;;0.10;0.10;;;4.00;99.90;2.70;96715.00;;;;5030690;28;20214;-72
2022/11/28 05:37:59;;;;;;;0.10;0.10;;;4.00;99.90;2.60;96729.00;;;;5017859;28;20207;-72
2022/11/28 05:40:27;;;;;;;0.10;0.10;;;4.00;99.90;2.60;96709.00;;;;5029391;28;20564;-72
2022/11/28 05:42:55;;;;;;;0.10;0.10;;;4.00;99.90;2.60;96688.00;;;;5024183;28;20535;-73
2022/11/28 05:45:24;;;;;;;0.10;0.10;;;3.90;99.90;2.60;96687.00;;;;5020100;28;20203;-74
2022/11/28 05:47:52;;;;;;;0.10;0.10;;;3.90;99.90;2.60;96679.00;;;;5030837;28;20266;-74
2022/11/28 05:50:20;;;;;;;0.10;0.10;;;3.90;99.90;2.60;96702.00;;;;5031195;28;20183;-74
2022/11/28 05:52:48;;;;;;;0.10;0.10;;;3.90;99.90;2.60;96708.00;;;;5030932;28;20666;-74
2022/11/28 05:55:17;;;;;;;0.10;0.10;;;3.90;99.90;2.60;96704.00;;;;5024734;28;20231;-73
2022/11/28 05:57:45;;;;;;;0.10;0.10;;;3.90;99.90;2.60;96703.00;;;;5019629;28;20203;-73
2022/11/28 06:00:14;;;;;;;0.08;0.08;;;3.90;99.90;2.60;96701.00;;;;5032770;28;20202;-75
2022/11/28 06:02:44;;;;;;;0.10;0.10;;;3.90;99.90;2.60;96695.00;;;;5032922;28;20198;-75
2022/11/28 06:05:12;;;;;;;0.10;0.10;;;3.90;99.90;2.50;96694.00;;;;5034912;28;20544;-75
2022/11/28 06:08:00;;;;;;;0.10;0.10;;;3.90;99.90;2.50;96701.00;;;;5027987;28;20765;-74
2022/11/28 06:10:28;;;;;;;0.10;0.10;;;3.90;99.90;2.50;96701.00;;;;5030398;28;20225;-74
2022/11/28 06:12:56;;;;;;;0.10;0.10;;;3.90;99.90;2.50;96697.00;;;;5032378;28;20190;-74
2022/11/28 06:15:24;;;;;;;0.10;0.10;;;3.80;99.90;2.50;96702.00;;;;5030221;28;20771;-74
2022/11/28 06:17:53;;;;;;;0.10;0.10;;;3.80;99.90;2.50;96707.00;;;;5031574;28;20191;-74
2022/11/28 06:20:21;;;;;;;0.10;0.10;;;3.80;99.90;2.60;96696.00;;;;5030659;28;20671;-74
2022/11/28 06:22:50;;;;;;;0.10;0.10;;;3.90;99.90;2.50;96699.00;;;;5032425;28;20216;-74
2022/11/28 06:25:18;;;;;;;0.10;0.10;;;3.90;99.90;2.50;96681.00;;;;5032208;28;20578;-74
2022/11/28 06:27:46;;;;;;;0.10;0.10;;;3.80;99.90;2.50;96701.00;;;;5016271;28;20258;-74
2022/11/28 06:30:15;;;;;;;0.08;0.08;;;3.80;99.90;2.50;96691.00;;;;5012211;28;20203;-74
2022/11/28 06:32:43;;;;;;;0.20;0.20;;;3.80;99.90;2.50;96686.00;;;;5012125;28;20231;-74
2022/11/28 06:35:12;;;;;;;0.10;0.10;;;3.80;99.90;2.50;96699.00;;;;5012241;28;20215;-74
2022/11/28 06:37:40;;;;;;;0.10;0.10;;;3.80;99.90;2.50;96632.00;;;;5012443;28;20246;-74
2022/11/28 06:40:09;;;;;;;0.10;0.10;;;3.80;99.90;2.50;96655.00;;;;5012372;28;20238;-74
2022/11/28 06:42:37;;;;;;;0.10;0.10;;;3.80;99.90;2.40;96647.00;;;;5012016;28;20187;-74
2022/11/28 06:45:08;;;;;;;0.10;0.10;;;3.80;99.90;2.50;96668.00;;;;5027251;28;20293;-74
2022/11/28 06:47:36;;;;;;;0.08;0.08;;;3.80;99.90;2.50;96674.00;;;;5029900;28;20204;-74
2022/11/28 06:50:07;;;;;;;0.10;0.10;;;3.80;99.90;2.50;96646.00;;;;5014946;28;20246;-74
2022/11/28 06:52:37;;;;;;;0.10;0.10;;;3.80;99.90;2.40;96673.00;;;;5031672;28;20230;-73
2022/11/28 06:55:06;;;;;;;0.10;0.10;;;3.80;99.90;2.40;96637.00;;;;5031803;28;20223;-74
2022/11/28 06:57:34;;;;;;;0.10;0.10;;;3.80;99.90;2.40;96632.00;;;;5031317;28;20286;-75
2022/11/28 07:00:04;;;;;;;0.10;0.10;;;3.80;99.90;2.40;96579.00;;;;5031315;28;20183;-75
2022/11/28 07:02:32;;;;;;;0.10;0.10;;;3.80;99.90;2.40;96644.00;;;;5031050;28;20568;-74
2022/11/28 07:05:01;;;;;;;0.10;0.10;;;3.80;99.90;2.50;96647.00;;;;5030989;28;20721;-74
2022/11/28 07:07:29;;;;;;;0.10;0.10;;;3.80;99.90;2.50;96650.00;;;;5031112;28;20667;-74
2022/11/28 07:09:58;;;;;;;0.10;0.10;;;3.80;99.90;2.50;96637.00;;;;5030955;28;20191;-74
2022/11/28 07:12:26;;;;;;;0.10;0.10;;;3.80;99.90;2.40;96645.00;;;;5030960;28;20241;-74
2022/11/28 07:14:54;;;;;;;0.10;0.10;;;3.80;99.90;2.50;96632.00;;;;5033740;28;20214;-74
2022/11/28 07:17:23;;;;;;;0.10;0.10;;;3.80;99.90;2.50;96635.00;;;;5034165;28;20958;-74
2022/11/28 07:19:51;;;;;;;0.10;0.10;;;3.80;99.90;2.50;96640.00;;;;5016132;28;20561;-74
2022/11/28 07:22:22;;;;;;;0.10;0.10;;;3.80;99.90;2.40;96642.00;;;;5034249;28;20191;-74
2022/11/28 07:24:50;;;;;;;0.10;0.10;;;3.80;99.90;2.40;96632.00;;;;5034175;28;20213;-74
2022/11/28 07:27:20;;;;;;;0.10;0.10;;;3.80;99.90;2.50;96648.00;;;;5034154;28;20207;-74
2022/11/28 07:29:48;;;;;;;0.10;0.10;;;3.80;99.90;2.40;96632.00;;;;5034226;28;20718;-74
2022/11/28 07:32:16;;;;;;;0.03;0.03;;;3.80;99.90;2.30;96637.00;;;;5034016;28;20257;-74
2022/11/28 07:34:44;;;;;;;0.10;0.10;;;3.80;99.90;2.40;96639.00;;;;5032741;28;20573;-74
2022/11/28 07:37:17;;;;;;;0.10;0.10;;;3.80;99.90;2.50;96648.00;;;;5021790;28;20781;-74
2022/11/28 07:39:45;;;;;;;0.10;0.10;;;3.80;99.90;2.40;96650.00;;;;5033737;28;20884;-74
2022/11/28 07:42:13;;;;;;;0.10;0.10;;;3.80;99.90;2.40;96655.00;;;;5033865;28;20195;-74
2022/11/28 07:44:45;;;;;;;0.10;0.10;;;3.80;99.90;2.50;96652.00;;;;5033516;28;20641;-74
2022/11/28 07:47:13;;;;;;;0.10;0.10;;;3.80;99.90;2.50;96657.00;;;;5033865;28;20241;-74
2022/11/28 07:49:41;;;;;;;0.10;0.10;;;3.90;99.90;2.50;96667.00;;;;5033361;28;20206;-74
2022/11/28 07:52:10;;;;;;;0.10;0.10;;;3.80;99.90;2.50;96676.00;;;;5033793;28;20183;-74
2022/11/28 07:54:38;;;;;;;0.10;0.10;;;3.80;99.90;2.50;96661.00;;;;5033580;28;20207;-74
2022/11/28 07:57:06;;;;;;;0.10;0.10;;;3.80;99.90;2.50;96608.00;;;;5033525;28;20288;-74
2022/11/28 07:59:41;;;;;;;0.10;0.10;;;3.80;99.90;2.40;96682.00;;;;5033354;28;20274;-74
2022/11/28 08:02:12;;;;;;;0.10;0.10;;;3.70;99.90;2.40;96668.00;;;;5033503;28;20233;-74
2022/11/28 08:04:40;;;;;;;0.10;0.10;;;3.80;99.90;2.40;96670.00;;;;5033634;28;20284;-74
2022/11/28 08:07:18;;;;;;;0.10;0.10;;;3.70;99.90;2.50;96660.00;;;;5033537;28;20270;-74
2022/11/28 08:09:46;;;;;;;0.10;0.10;;;3.80;99.90;2.50;96645.00;;;;5033354;28;20597;-74
2022/11/28 08:12:14;;;;;;;0.10;0.10;;;3.80;99.90;2.40;96654.00;;;;5033384;28;20592;-74
2022/11/28 08:14:43;;;;;;;0.10;0.10;;;3.70;99.90;2.40;96661.00;;;;5033433;28;20277;-74
2022/11/28 08:17:13;;;;;;;0.10;0.10;;;3.70;99.90;2.40;96649.00;;;;5033536;28;20698;-73
2022/11/28 08:19:41;;;;;;;0.10;0.10;;;3.80;99.90;2.50;96641.00;;;;5033629;28;20190;-74
2022/11/28 08:22:09;;;;;;;0.10;0.10;;;3.80;99.90;2.40;96639.00;;;;5032585;28;20195;-74
2022/11/28 08:24:37;;;;;;;0.10;0.10;;;3.80;99.90;2.40;96649.00;;;;5032845;28;20244;-73
2022/11/28 08:27:05;;;;;;;0.10;0.10;;;3.70;99.90;2.40;96639.00;;;;5032768;28;20195;-73
2022/11/28 08:29:33;;;;;;;0.10;0.10;;;3.70;99.90;2.40;96631.00;;;;5032899;28;20199;-74
2022/11/28 08:32:01;;;;;;;0.10;0.10;;;3.70;99.90;2.50;96635.00;;;;5032935;28;20542;-74
2022/11/28 08:34:31;;;;;;;0.00;0.00;;;3.80;99.90;2.40;96617.00;;;;5032693;28;20245;-74
2022/11/28 08:36:59;;;;;;;0.10;0.10;;;3.70;99.90;2.50;96629.00;;;;5032597;28;20630;-74
2022/11/28 08:39:27;;;;;;;0.10;0.10;;;3.80;99.90;2.50;96643.00;;;;5032635;28;20606;-74
2022/11/28 08:41:57;;;;;;;0.10;0.10;;;3.80;99.90;2.40;96633.00;;;;5033185;28;20203;-74
2022/11/28 08:44:27;;;;;;;0.10;0.10;;;3.70;99.90;2.40;96525.00;;;;5033158;28;20222;-74
2022/11/28 08:46:57;;;;;;;0.10;0.10;;;3.80;99.90;2.50;96641.00;;;;5033424;28;20211;-74
2022/11/28 08:49:25;;;;;;;0.10;0.10;;;3.80;99.90;2.50;96640.00;;;;5034239;28;20203;-74
2022/11/28 08:51:55;;;;;;;0.10;0.10;;;3.80;99.90;2.50;96646.00;;;;5032930;28;20254;-75
2022/11/28 08:54:23;;;;;;;0.10;0.10;;;3.80;99.90;2.50;96629.00;;;;5032195;28;20215;-74
2022/11/28 08:56:51;;;;;;;0.10;0.10;;;3.80;99.90;2.60;96620.00;;;;5032752;28;20277;-74
2022/11/28 08:59:19;;;;;;;0.00;0.00;;;3.90;99.90;2.50;96584.00;;;;5032193;28;20210;-74
2022/11/28 09:01:47;;;;;;;0.00;0.00;;;3.80;99.90;2.50;96600.00;;;;5025589;28;20227;-74
2022/11/28 09:04:15;;;;;;;0.10;0.10;;;3.80;99.90;2.50;96626.00;;;;5029042;28;20214;-74
2022/11/28 09:06:44;;;;;;;0.10;0.10;;;3.90;99.90;2.50;96594.00;;;;5032727;28;20270;-74
2022/11/28 09:09:13;;;;;;;0.10;0.10;;;3.90;99.90;2.60;96636.00;;;;5032959;28;20195;-74
2022/11/28 09:11:42;;;;;;;0.10;0.10;;;3.90;99.90;2.60;96627.00;;;;5032649;28;20203;-74
2022/11/28 09:14:10;;;;;;;0.10;0.10;;;3.90;99.90;2.60;96599.00;;;;5032238;28;20211;-74
2022/11/28 09:16:38;;;;;;;0.10;0.10;;;3.90;99.90;2.60;96605.00;;;;5032205;28;20237;-74
2022/11/28 09:19:08;;;;;;;0.10;0.10;;;3.90;99.90;2.60;96623.00;;;;5032141;28;20550;-74
2022/11/28 09:21:36;;;;;;;0.10;0.10;;;3.90;99.90;2.60;96632.00;;;;5032050;28;20271;-74
2022/11/28 09:24:06;;;;;;;0.10;0.10;;;4.00;99.90;2.60;96569.00;;;;5032246;28;20210;-74
2022/11/28 09:26:36;;;;;;;0.10;0.10;;;3.90;99.90;2.60;96643.00;;;;5032112;28;20191;-74
2022/11/28 09:29:04;;;;;;;0.10;0.10;;;3.90;99.90;2.50;96662.00;;;;5031893;28;20285;-74
2022/11/28 09:31:32;;;;;;;0.10;0.10;;;3.90;99.90;2.50;96651.00;;;;5031573;28;20248;-73
2022/11/28 09:34:02;;;;;;;0.10;0.10;;;3.90;99.90;2.60;96646.00;;;;5031742;28;20211;-73
2022/11/28 09:36:32;;;;;;;0.10;0.10;;;3.90;99.90;2.60;96630.00;;;;5031226;28;20219;-74
2022/11/28 09:39:01;;;;;;;0.10;0.10;;;3.90;99.90;2.50;96664.00;;;;5031328;28;20187;-74
2022/11/28 09:41:42;;;;;;;0.10;0.10;;;3.80;99.90;2.50;96644.00;;;;5031523;28;20221;-74
2022/11/28 09:44:20;;;;;;;0.10;0.10;;;3.80;99.90;2.50;96660.00;;;;5031693;28;20214;-75
2022/11/28 09:46:53;;;;;;;0.10;0.10;;;3.90;99.90;2.60;96648.00;;;;5031975;28;20199;-74
2022/11/28 09:49:37;;;;;;;0.10;0.10;;;3.90;99.90;2.60;96672.00;;;;5033468;28;20250;-75
2022/11/28 09:52:25;;;;;;;0.10;0.10;;;3.90;99.90;2.60;96649.00;;;;5032239;28;20567;-75
2022/11/28 09:55:03;;;;;;;0.10;0.10;;;3.90;99.90;2.50;96640.00;;;;5031387;28;20234;-76
2022/11/28 09:57:39;;;;;;;0.10;0.10;;;3.90;99.90;2.60;96655.00;;;;5031166;28;20222;-76
2022/11/28 10:00:20;;;;;;;0.10;0.10;;;3.90;99.90;2.60;96646.00;;;;5031794;28;20193;-76
2022/11/28 10:03:13;;;;;;;0.10;0.10;;;3.90;99.90;2.70;96639.00;;;;5033298;28;20221;-76
2022/11/28 10:05:48;;;;;;;0.10;0.10;;;4.00;99.90;2.70;96645.00;;;;5031204;28;20713;-76
2022/11/28 10:08:28;;;;;;;0.10;0.10;;;4.00;99.90;2.70;96638.00;;;;5031491;28;20205;-76
2022/11/28 10:11:04;;;;;;;0.10;0.10;;;4.00;99.90;2.70;96579.00;;;;5031360;28;20249;-75
2022/11/28 10:13:49;;;;;;;0.10;0.10;;;4.00;99.90;2.70;96638.00;;;;5031640;28;20615;-76
2022/11/28 10:16:50;;;;;;;0.10;0.10;;;4.10;99.90;2.90;96644.00;;;;5031019;28;20651;-76
2022/11/28 10:19:32;;;;;;;0.10;0.10;;;4.20;99.90;2.90;96642.00;;;;5031242;28;20621;-76
2022/11/28 10:22:31;;;;;;;0.10;0.10;;;4.20;99.90;2.80;96626.00;;;;5031389;28;20214;-76
2022/11/28 10:25:06;;;;;;;0.10;0.10;;;4.20;99.90;2.90;96561.00;;;;5031574;28;20558;-76
2022/11/28 10:27:35;;;;;;;0.10;0.10;;;4.20;99.90;2.90;96634.00;;;;5030265;28;20198;-76
2022/11/28 10:30:14;;;;;;;0.10;0.10;;;4.20;99.90;2.90;96620.00;;;;5031123;28;20226;-76
2022/11/28 10:32:53;;;;;;;0.10;0.10;;;4.20;99.90;2.90;96612.00;;;;5030949;28;20206;-76
2022/11/28 10:35:32;;;;;;;0.10;0.10;;;4.20;99.90;2.90;96561.00;;;;5031351;28;20187;-76
2022/11/28 10:38:00;;;;;;;0.10;0.10;;;4.20;99.90;2.90;96610.00;;;;5030835;28;20301;-75
2022/11/28 10:40:41;;;;;;;0.10;0.10;;;4.20;99.90;2.90;96618.00;;;;5031168;28;20625;-76
2022/11/28 10:43:22;;;;;;;0.10;0.10;;;4.20;99.90;3.00;96630.00;;;;5031063;28;20261;-76
2022/11/28 10:46:04;;;;;;;0.10;0.10;;;4.30;99.90;3.00;96627.00;;;;5031208;28;20199;-75
2022/11/28 10:48:45;;;;;;;0.10;0.10;;;4.30;99.90;2.90;96622.00;;;;5031728;28;20694;-76
2022/11/28 10:51:31;;;;;;;0.10;0.10;;;4.20;99.90;2.90;96635.00;;;;5035236;28;20195;-76
2022/11/28 10:54:19;;;;;;;0.10;0.10;;;4.20;99.90;2.90;96592.00;;;;5034905;28;20707;-76
2022/11/28 10:57:01;;;;;;;0.10;0.10;;;4.20;99.90;2.90;96618.00;;;;5034910;28;20199;-75
2022/11/28 10:59:49;;;;;;;0.00;0.00;;;4.20;99.90;2.90;96591.00;;;;5034545;28;20249;-75
2022/11/28 11:02:26;;;;;;;0.10;0.10;;;4.20;99.90;2.80;96609.00;;;;5034752;28;20253;-76
2022/11/28 11:04:55;;;;;;;0.10;0.10;;;4.20;99.90;2.90;96614.00;;;;5034837;28;20241;-76
2022/11/28 11:07:28;;;;;;;0.10;0.10;;;4.20;99.90;2.90;96610.00;;;;5034407;28;20199;-76
2022/11/28 11:10:02;;;;;;;0.10;0.10;;;4.20;99.90;2.90;96615.00;;;;5034844;28;20313;-75
2022/11/28 11:12:34;;;;;;;0.10;0.10;;;4.20;99.90;2.90;96609.00;;;;5034900;28;20333;-76
2022/11/28 11:15:17;;;;;;;0.10;0.10;;;4.20;99.90;2.90;96619.00;;;;5034828;28;20218;-75
2022/11/28 11:17:49;;;;;;;0.10;0.10;;;4.20;99.90;2.80;96618.00;;;;5034399;28;20219;-76
2022/11/28 11:20:34;;;;;;;0.10;0.10;;;4.10;99.90;2.70;96614.00;;;;5036635;28;20191;-76
2022/11/28 11:23:15;;;;;;;0.10;0.10;;;4.10;99.90;2.70;96614.00;;;;5037181;28;20237;-76
2022/11/28 11:25:52;;;;;;;0.10;0.10;;;4.10;99.90;2.80;96602.00;;;;5035059;28;20195;-75
2022/11/28 11:28:43;;;;;;;0.10;0.10;;;4.10;99.90;2.80;96606.00;;;;5033829;28;20201;-75
2022/11/28 11:31:23;;;;;;;0.10;0.10;;;4.10;99.90;2.80;96600.00;;;;5032947;28;20221;-76
2022/11/28 11:34:02;;;;;;;0.10;0.10;;;4.10;99.90;2.70;96589.00;;;;5034606;28;20202;-75
2022/11/28 11:36:33;;;;;;;0.10;0.10;;;4.00;99.90;2.70;96595.00;;;;5034255;28;20187;-76
2022/11/28 11:39:24;;;;;;;0.10;0.10;;;4.00;99.90;2.70;96535.00;;;;5033787;28;20218;-76